createdAt,value
2023-05-10T00:01:44.306Z,13
2023-05-10T00:11:46.209Z,12.9
2023-05-10T00:21:48.868Z,13
2023-05-10T00:41:53.210Z,12.9
2023-05-10T00:51:55.313Z,13
2023-05-10T01:01:57.218Z,12.9
2023-05-10T01:11:59.364Z,12.9
2023-05-10T01:22:01.838Z,12.9
2023-05-10T01:32:03.949Z,12.9
2023-05-10T01:42:06.087Z,13
2023-05-10T01:52:07.916Z,12.7
2023-05-10T02:02:10.324Z,12.4
2023-05-10T02:12:12.311Z,12.2
2023-05-10T02:22:14.012Z,12.2
2023-05-10T02:32:16.384Z,12.2
2023-05-10T02:42:18.652Z,12.2
2023-05-10T02:52:21.116Z,12.1
2023-05-10T03:12:25.965Z,11.9
2023-05-10T03:22:28.464Z,12
2023-05-10T03:42:32.371Z,11.9
2023-05-10T03:52:34.628Z,11.9
2023-05-10T04:02:36.852Z,12
2023-05-10T04:12:39.211Z,12
2023-05-10T04:22:40.971Z,12.1
2023-05-10T04:32:43.437Z,12.1
2023-05-10T04:42:45.110Z,12.2
2023-05-10T04:52:46.912Z,12.2
2023-05-10T05:02:49.391Z,12.3
2023-05-10T05:12:51.099Z,12.3
2023-05-10T05:22:53.153Z,12.4
2023-05-10T05:32:55.617Z,12.5
2023-05-10T05:42:57.441Z,12.6
2023-05-10T05:52:59.654Z,12.6
2023-05-10T06:03:01.919Z,12.7
2023-05-10T06:13:03.730Z,12.7
2023-05-10T06:23:05.874Z,12.8
2023-05-10T06:33:07.796Z,13.1
2023-05-10T06:43:10.349Z,13.4
2023-05-10T06:53:12.138Z,13.3
2023-05-10T07:03:13.877Z,13.4
2023-05-10T07:13:15.913Z,13.5
2023-05-10T07:23:17.978Z,13.8
2023-05-10T07:33:20.319Z,13.9
2023-05-10T07:43:22.796Z,13.9
2023-05-10T08:03:27.378Z,14.5
2023-05-10T08:13:29.695Z,14.7
2023-05-10T08:23:31.736Z,14.7
2023-05-10T08:33:34.029Z,14.9
2023-05-10T08:43:36.058Z,15.1
2023-05-10T08:53:38.232Z,14.9
2023-05-10T09:03:40.143Z,15.1
2023-05-10T09:13:42.397Z,14.9
2023-05-10T09:23:45.625Z,14.8
2023-05-10T09:33:46.332Z,15.2
2023-05-10T09:43:48.802Z,15.6
2023-05-10T09:53:50.844Z,15.8
2023-05-10T10:03:53.438Z,15.7
2023-05-10T10:13:55.573Z,16.4
2023-05-10T10:23:58.249Z,16.8
2023-05-10T10:34:00.642Z,16.2
2023-05-10T10:54:04.606Z,14.6
2023-05-10T11:04:07.237Z,14.8
2023-05-10T11:14:09.641Z,14.7
2023-05-10T11:24:11.764Z,14.6
2023-05-10T11:44:16.463Z,15.2
2023-05-10T12:04:21.117Z,15.8
2023-05-10T12:24:25.840Z,15.4
2023-05-10T12:44:29.363Z,15.9
2023-05-10T13:04:32.957Z,15.9
2023-05-10T13:14:34.815Z,15.6
2023-05-10T13:24:36.642Z,16.1
2023-05-10T13:44:41.400Z,16
2023-05-10T14:04:46.012Z,16.5
2023-05-10T14:24:50.578Z,17.1
2023-05-10T15:04:58.655Z,17.8
2023-05-10T15:15:00.861Z,18.3
2023-05-10T15:25:02.622Z,18.7
2023-05-10T15:35:04.586Z,18.4
2023-05-10T15:45:06.581Z,18.4
2023-05-10T15:55:08.515Z,17.8
2023-05-10T16:05:10.728Z,17.6
2023-05-10T16:15:13.217Z,17.7
2023-05-10T16:25:15.896Z,17.8
2023-05-10T16:35:18.751Z,17.6
2023-05-10T16:45:20.691Z,17.2
2023-05-10T17:05:24.647Z,16.9
2023-05-10T17:25:29.316Z,16.8
2023-05-10T17:35:31.642Z,16.7
2023-05-10T17:45:34.328Z,16.4
2023-05-10T17:55:36.668Z,16.2
2023-05-10T18:15:41.482Z,15.7
2023-05-10T18:25:43.344Z,14.8
2023-05-10T18:35:45.331Z,14.5
2023-05-10T18:45:46.993Z,14.1
2023-05-10T21:36:22.668Z,13.2
